Time;durP1;ratioP1;P1;durP2;ratioP2;P2;SDS_P1;SDS_P2;PMS_P1;PMS_P2;Temp;Humidity;BMP_temperature;BMP_pressure;BME280_temperature;BME280_humidity;BME280_pressure;Samples;Min_cycle;Max_cycle;Signal;HPM_P1;HPM_P2
2024/04/12 00:01:44;;;;;;;9.60;1.20;;;;;;;;;;5374528;26;20011;-55
2024/04/12 00:04:15;;;;;;;4.68;1.05;;;;;;;;;;5314862;26;20038;-56
2024/04/12 00:06:45;;;;;;;2.50;1.20;;;;;;;;;;5374427;26;20019;-51
2024/04/12 00:09:17;;;;;;;7.50;1.50;;;;;;;;;;5373984;26;20080;-56
2024/04/12 00:11:44;;;;;;;2.72;1.10;;;;;;;;;;5372579;26;20019;-52
2024/04/12 00:14:19;;;;;;;5.55;1.00;;;;;;;;;;5371922;26;20036;-51
2024/04/12 00:16:57;;;;;;;4.57;1.45;;;;;;;;;;5314258;26;20008;-52
2024/04/12 00:19:23;;;;;;;2.22;1.20;;;;;;;;;;5373777;26;20445;-58
2024/04/12 00:21:59;;;;;;;4.57;1.40;;;;;;;;;;5374239;26;20036;-58
2024/04/12 00:24:29;;;;;;;3.28;1.35;;;;;;;;;;5343406;26;20184;-54
2024/04/12 00:26:58;;;;;;;;;;;;;;;;;;5401871;26;20018;-55
2024/04/12 00:29:36;;;;;;;3.55;1.40;;;;;;;;;;5407866;26;19937;-56
2024/04/12 00:32:16;;;;;;;3.38;1.17;;;;;;;;;;5407631;26;20471;-54
2024/04/12 00:34:47;;;;;;;2.55;1.25;;;;;;;;;;5372469;26;20008;-55
2024/04/12 00:37:17;;;;;;;4.60;1.20;;;;;;;;;;5374233;26;20434;-58
2024/04/12 00:39:48;;;;;;;4.07;1.50;;;;;;;;;;5373862;26;20048;-57
2024/04/12 00:42:15;;;;;;;6.72;1.40;;;;;;;;;;5343120;26;20032;-56
2024/04/12 00:44:41;;;;;;;3.95;1.50;;;;;;;;;;5370862;26;20004;-55
2024/04/12 00:47:17;;;;;;;3.03;1.40;;;;;;;;;;5372082;26;20000;-56
2024/04/12 00:49:49;;;;;;;5.20;1.65;;;;;;;;;;5371930;26;20346;-55
2024/04/12 00:52:27;;;;;;;4.35;1.60;;;;;;;;;;5343139;26;20008;-58
2024/04/12 00:55:03;;;;;;;5.70;1.45;;;;;;;;;;5387799;26;20018;-53
2024/04/12 00:57:35;;;;;;;2.40;1.50;;;;;;;;;;5371689;26;20005;-54
2024/04/12 01:00:08;;;;;;;8.95;1.90;;;;;;;;;;5343078;26;20005;-53
2024/04/12 01:02:41;;;;;;;6.53;2.00;;;;;;;;;;5373762;26;20004;-54
2024/04/12 01:05:13;;;;;;;5.78;1.50;;;;;;;;;;5399485;26;20008;-54
2024/04/12 01:07:48;;;;;;;4.10;1.55;;;;;;;;;;5377685;26;20085;-53
2024/04/12 01:10:24;;;;;;;3.22;1.45;;;;;;;;;;5408581;26;20017;-55
2024/04/12 01:12:55;;;;;;;2.88;1.40;;;;;;;;;;5406556;26;20375;-55
2024/04/12 01:15:23;;;;;;;5.25;1.67;;;;;;;;;;5378334;26;20421;-54
2024/04/12 01:17:49;;;;;;;3.25;1.40;;;;;;;;;;5373010;26;20005;-55
2024/04/12 01:20:16;;;;;;;11.90;2.00;;;;;;;;;;5371270;26;20422;-54
2024/04/12 01:22:45;;;;;;;3.15;1.33;;;;;;;;;;5373308;26;20364;-55
2024/04/12 01:25:11;;;;;;;3.67;1.58;;;;;;;;;;5371829;26;20004;-58
2024/04/12 01:27:40;;;;;;;3.60;1.60;;;;;;;;;;5373076;26;20012;-56
2024/04/12 01:30:06;;;;;;;;;;;;;;;;;;5371079;26;20372;-57
2024/04/12 01:32:32;;;;;;;3.17;1.52;;;;;;;;;;5372627;26;19926;-57
2024/04/12 01:35:03;;;;;;;5.07;1.60;;;;;;;;;;5342170;26;20005;-57
2024/04/12 01:37:31;;;;;;;2.42;1.35;;;;;;;;;;5342454;26;20004;-57
2024/04/12 01:40:02;;;;;;;6.47;1.88;;;;;;;;;;5313135;26;20017;-56
2024/04/12 01:42:30;;;;;;;3.38;1.60;;;;;;;;;;5370724;26;20051;-54
2024/04/12 01:45:14;;;;;;;6.80;1.95;;;;;;;;;;5373680;26;20000;-57
2024/04/12 01:47:45;;;;;;;3.67;1.67;;;;;;;;;;5393699;26;20013;-58
2024/04/12 01:50:21;;;;;;;5.40;1.95;;;;;;;;;;5409718;26;20008;-55
2024/04/12 01:52:50;;;;;;;6.65;2.15;;;;;;;;;;5411343;26;20569;-56
2024/04/12 01:55:20;;;;;;;6.00;1.73;;;;;;;;;;5404871;26;20059;-55
2024/04/12 01:57:49;;;;;;;6.55;2.33;;;;;;;;;;5390206;26;20457;-56
2024/04/12 02:00:20;;;;;;;;;;;;;;;;;;5412581;26;20022;-56
2024/04/12 02:02:46;;;;;;;8.88;2.60;;;;;;;;;;5380025;26;19932;-57
2024/04/12 02:05:12;;;;;;;7.40;2.17;;;;;;;;;;5405092;26;20457;-56
2024/04/12 02:07:41;;;;;;;7.57;2.10;;;;;;;;;;5377101;26;20024;-56
2024/04/12 02:10:11;;;;;;;4.05;1.95;;;;;;;;;;5374782;26;20019;-56
2024/04/12 02:12:42;;;;;;;4.90;1.70;;;;;;;;;;5374462;26;20058;-55
2024/04/12 02:15:25;;;;;;;2.00;1.55;;;;;;;;;;5373646;26;20137;-57
2024/04/12 02:17:57;;;;;;;2.80;1.40;;;;;;;;;;5374472;26;20015;-53
2024/04/12 02:20:45;;;;;;;5.32;1.58;;;;;;;;;;5326131;26;20823;-55
2024/04/12 02:23:13;;;;;;;7.70;2.50;;;;;;;;;;5376065;26;20004;-55
2024/04/12 02:25:40;;;;;;;5.72;1.95;;;;;;;;;;5373870;26;20040;-54
2024/04/12 02:28:11;;;;;;;6.15;1.95;;;;;;;;;;5374989;26;20004;-53
2024/04/12 02:30:44;;;;;;;5.95;2.10;;;;;;;;;;5375732;26;20022;-58
2024/04/12 02:33:17;;;;;;;6.07;2.05;;;;;;;;;;5374075;26;20041;-56
2024/04/12 02:35:46;;;;;;;2.53;1.10;;;;;;;;;;5375947;26;20022;-57
2024/04/12 02:38:15;;;;;;;6.28;2.55;;;;;;;;;;5374369;26;19996;-56
2024/04/12 02:40:42;;;;;;;8.18;2.10;;;;;;;;;;5375799;26;20036;-57
2024/04/12 02:43:09;;;;;;;7.13;2.22;;;;;;;;;;5375262;26;20009;-54
2024/04/12 02:45:36;;;;;;;7.95;2.13;;;;;;;;;;5373103;26;20004;-57
2024/04/12 02:48:03;;;;;;;5.22;2.22;;;;;;;;;;5376030;26;20015;-56
2024/04/12 02:50:29;;;;;;;8.95;2.20;;;;;;;;;;5375630;26;20695;-57
2024/04/12 02:52:55;;;;;;;3.55;1.75;;;;;;;;;;5375093;26;20016;-55
2024/04/12 02:55:21;;;;;;;6.90;2.50;;;;;;;;;;5374927;26;20008;-54
2024/04/12 02:57:47;;;;;;;8.02;2.40;;;;;;;;;;5372982;26;20004;-53
2024/04/12 03:00:22;;;;;;;8.10;2.60;;;;;;;;;;5343968;26;20023;-56
2024/04/12 03:02:51;;;;;;;5.63;2.33;;;;;;;;;;5374851;26;20012;-54
2024/04/12 03:05:18;;;;;;;4.45;2.17;;;;;;;;;;5405268;26;20003;-55
2024/04/12 03:07:45;;;;;;;12.18;3.10;;;;;;;;;;5403819;26;20000;-53
2024/04/12 03:10:15;;;;;;;10.63;2.65;;;;;;;;;;5407384;26;20023;-56
2024/04/12 03:12:43;;;;;;;10.90;2.90;;;;;;;;;;5409966;26;20003;-56
2024/04/12 03:15:10;;;;;;;5.63;2.60;;;;;;;;;;5410136;26;20008;-55
2024/04/12 03:17:36;;;;;;;7.55;2.80;;;;;;;;;;5408454;26;20000;-54
2024/04/12 03:20:03;;;;;;;6.63;2.50;;;;;;;;;;5379346;26;20545;-56
2024/04/12 03:22:30;;;;;;;10.68;2.80;;;;;;;;;;5410155;26;20018;-59
2024/04/12 03:24:56;;;;;;;10.75;3.65;;;;;;;;;;5410364;26;20910;-54
2024/04/12 03:27:22;;;;;;;8.77;3.70;;;;;;;;;;5410183;26;20000;-55
2024/04/12 03:29:51;;;;;;;7.55;2.85;;;;;;;;;;5382605;26;20050;-58
2024/04/12 03:32:19;;;;;;;9.27;4.13;;;;;;;;;;5389372;26;20007;-54
2024/04/12 03:34:49;;;;;;;7.03;2.58;;;;;;;;;;5408671;26;20008;-55
2024/04/12 03:37:36;;;;;;;8.02;2.35;;;;;;;;;;5408521;26;20036;-56
2024/04/12 03:40:15;;;;;;;8.77;2.45;;;;;;;;;;5385655;26;20004;-56
2024/04/12 03:42:41;;;;;;;10.82;3.13;;;;;;;;;;5373412;26;20360;-54
2024/04/12 03:45:12;;;;;;;9.23;3.00;;;;;;;;;;5375250;26;20004;-57
2024/04/12 03:47:39;;;;;;;5.45;2.25;;;;;;;;;;5373259;26;20008;-57
2024/04/12 03:50:13;;;;;;;5.57;2.17;;;;;;;;;;5389541;26;20010;-59
2024/04/12 03:52:41;;;;;;;6.75;2.70;;;;;;;;;;5408252;26;20008;-57
2024/04/12 03:55:09;;;;;;;6.32;2.13;;;;;;;;;;5410347;26;20015;-53
2024/04/12 03:57:38;;;;;;;6.05;2.40;;;;;;;;;;5400531;26;20000;-55
2024/04/12 04:00:11;;;;;;;4.88;1.80;;;;;;;;;;5393400;26;20019;-55
2024/04/12 04:02:41;;;;;;;8.02;2.40;;;;;;;;;;5372041;26;19996;-56
2024/04/12 04:05:14;;;;;;;7.88;2.40;;;;;;;;;;5372755;26;20483;-59
2024/04/12 04:07:41;;;;;;;6.47;2.13;;;;;;;;;;5343215;26;20044;-57
2024/04/12 04:10:14;;;;;;;8.75;2.15;;;;;;;;;;5389754;26;20106;-56
2024/04/12 04:12:44;;;;;;;6.93;1.77;;;;;;;;;;5373230;26;20032;-57
2024/04/12 04:15:11;;;;;;;5.53;2.35;;;;;;;;;;5374658;26;20015;-55
2024/04/12 04:17:37;;;;;;;8.48;2.53;;;;;;;;;;5349065;26;20045;-56
2024/04/12 04:20:06;;;;;;;5.75;2.20;;;;;;;;;;5356437;26;20004;-56
2024/04/12 04:25:00;;;;;;;8.80;2.17;;;;;;;;;;5398898;26;20022;-58
2024/04/12 04:27:26;;;;;;;5.28;2.20;;;;;;;;;;5409383;26;20004;-59
2024/04/12 04:29:55;;;;;;;3.63;1.55;;;;;;;;;;5409598;26;20053;-59
2024/04/12 04:32:26;;;;;;;6.43;2.75;;;;;;;;;;5407652;26;20563;-58
2024/04/12 04:35:04;;;;;;;2.42;1.50;;;;;;;;;;5398749;26;20467;-57
2024/04/12 04:37:34;;;;;;;7.63;2.47;;;;;;;;;;5387461;26;20411;-60
2024/04/12 04:40:01;;;;;;;6.35;2.05;;;;;;;;;;5409244;26;20502;-56
2024/04/12 04:42:30;;;;;;;5.88;2.25;;;;;;;;;;5409010;26;20087;-59
2024/04/12 04:44:56;;;;;;;4.60;2.15;;;;;;;;;;5406235;26;20027;-59
2024/04/12 04:47:23;;;;;;;10.50;2.38;;;;;;;;;;5371776;26;20070;-55
2024/04/12 04:49:50;;;;;;;7.35;1.98;;;;;;;;;;5390641;26;20493;-55
2024/04/12 04:52:16;;;;;;;8.65;2.58;;;;;;;;;;5371480;26;20479;-56
2024/04/12 04:54:43;;;;;;;10.50;3.47;;;;;;;;;;5371308;26;20012;-56
2024/04/12 04:57:10;;;;;;;7.45;2.88;;;;;;;;;;5371790;26;20004;-57
2024/04/12 04:59:35;;;;;;;8.73;2.30;;;;;;;;;;5408973;26;20004;-58
2024/04/12 05:02:01;;;;;;;6.60;2.38;;;;;;;;;;5406981;26;20478;-52
2024/04/12 05:04:32;;;;;;;5.10;1.58;;;;;;;;;;5402788;26;20003;-55
2024/04/12 05:06:58;;;;;;;8.35;3.13;;;;;;;;;;5392700;26;20025;-54
2024/04/12 05:09:27;;;;;;;6.30;2.45;;;;;;;;;;5371437;26;20000;-54
2024/04/12 05:11:53;;;;;;;6.32;2.53;;;;;;;;;;5371082;26;20480;-53
2024/04/12 05:17:15;;;;;;;7.68;2.15;;;;;;;;;;5390947;26;20034;-52
2024/04/12 05:19:41;;;;;;;9.63;2.30;;;;;;;;;;5367245;26;20004;-52
2024/04/12 05:22:07;;;;;;;3.90;1.65;;;;;;;;;;5370060;26;20005;-53
2024/04/12 05:24:35;;;;;;;7.25;2.67;;;;;;;;;;5371989;26;20669;-53
2024/04/12 05:27:04;;;;;;;6.53;2.45;;;;;;;;;;5341527;26;20104;-54
2024/04/12 05:29:30;;;;;;;6.13;2.10;;;;;;;;;;5372225;26;20005;-53
2024/04/12 05:31:58;;;;;;;10.00;2.67;;;;;;;;;;5371632;26;20012;-57
2024/04/12 05:34:28;;;;;;;8.70;2.33;;;;;;;;;;5370461;26;20019;-58
2024/04/12 05:36:59;;;;;;;6.93;1.85;;;;;;;;;;5375803;26;20390;-52
2024/04/12 05:39:26;;;;;;;8.20;2.78;;;;;;;;;;5369024;26;20485;-53
2024/04/12 05:41:53;;;;;;;5.53;2.33;;;;;;;;;;5344691;26;20000;-53
2024/04/12 05:44:19;;;;;;;5.07;2.50;;;;;;;;;;5408565;26;20008;-54
2024/04/12 05:46:45;;;;;;;4.22;1.98;;;;;;;;;;5381518;26;20498;-56
2024/04/12 05:49:11;;;;;;;2.53;1.15;;;;;;;;;;5381638;26;20001;-49
2024/04/12 05:51:41;;;;;;;8.02;2.28;;;;;;;;;;5369361;26;20004;-49
2024/04/12 05:54:15;;;;;;;4.97;2.20;;;;;;;;;;5370641;26;20087;-46
2024/04/12 05:56:46;;;;;;;6.90;1.90;;;;;;;;;;5372887;26;20060;-49
2024/04/12 05:59:15;;;;;;;10.90;2.15;;;;;;;;;;5372353;26;20004;-51
2024/04/12 06:01:51;;;;;;;6.60;1.67;;;;;;;;;;5371760;26;20016;-53
2024/04/12 06:04:21;;;;;;;6.03;1.48;;;;;;;;;;5382203;26;20015;-49
2024/04/12 06:06:47;;;;;;;5.55;1.65;;;;;;;;;;5413597;26;20128;-48
2024/04/12 06:09:20;;;;;;;8.25;2.00;;;;;;;;;;5408121;26;20004;-50
2024/04/12 06:11:50;;;;;;;6.57;2.38;;;;;;;;;;5405665;26;20489;-49
2024/04/12 06:14:16;;;;;;;12.07;2.38;;;;;;;;;;5407815;26;20027;-46
2024/04/12 06:16:41;;;;;;;4.50;1.48;;;;;;;;;;5375110;26;20491;-48
2024/04/12 06:19:07;;;;;;;9.32;2.38;;;;;;;;;;5371910;26;20419;-51
2024/04/12 06:21:36;;;;;;;5.43;1.75;;;;;;;;;;5372153;26;20111;-48
2024/04/12 06:24:08;;;;;;;7.53;2.03;;;;;;;;;;5371851;26;20023;-48
2024/04/12 06:26:39;;;;;;;4.85;1.83;;;;;;;;;;5391830;26;20035;-48
2024/04/12 06:29:06;;;;;;;7.30;1.90;;;;;;;;;;5344715;26;20008;-49
2024/04/12 06:31:35;;;;;;;5.90;1.60;;;;;;;;;;5373335;26;20004;-49
2024/04/12 06:34:04;;;;;;;4.75;1.83;;;;;;;;;;5375778;26;20051;-49
2024/04/12 06:36:34;;;;;;;4.68;1.40;;;;;;;;;;5374068;26;20009;-48
2024/04/12 06:39:04;;;;;;;3.17;1.38;;;;;;;;;;5375363;26;20005;-48
2024/04/12 06:41:33;;;;;;;3.15;1.10;;;;;;;;;;5375564;26;20019;-47
2024/04/12 06:43:59;;;;;;;3.63;1.42;;;;;;;;;;5373531;26;20007;-48
2024/04/12 06:46:27;;;;;;;4.65;1.88;;;;;;;;;;5375940;26;20031;-48
2024/04/12 06:49:07;;;;;;;5.68;1.73;;;;;;;;;;5373274;26;20371;-47
2024/04/12 06:51:34;;;;;;;5.20;1.63;;;;;;;;;;5375413;26;20008;-51
2024/04/12 06:54:02;;;;;;;6.23;1.23;;;;;;;;;;5344629;26;20046;-44
2024/04/12 06:56:28;;;;;;;9.60;1.45;;;;;;;;;;5373458;26;20004;-50
2024/04/12 06:58:54;;;;;;;4.05;1.63;;;;;;;;;;5375381;26;20622;-49
2024/04/12 07:01:25;;;;;;;8.18;3.05;;;;;;;;;;5375488;26;20367;-47
2024/04/12 07:03:52;;;;;;;3.15;1.30;;;;;;;;;;5375858;26;20019;-46
2024/04/12 07:06:18;;;;;;;5.63;1.17;;;;;;;;;;5343860;26;20028;-46
2024/04/12 07:08:49;;;;;;;2.38;1.02;;;;;;;;;;5375237;26;20008;-47
2024/04/12 07:11:19;;;;;;;2.60;1.35;;;;;;;;;;5375249;26;20031;-53
2024/04/12 07:13:50;;;;;;;6.38;1.92;;;;;;;;;;5344635;26;20005;-49
2024/04/12 07:16:18;;;;;;;6.35;1.40;;;;;;;;;;5375164;26;20008;-51
2024/04/12 07:18:44;;;;;;;8.10;1.55;;;;;;;;;;5373128;26;20020;-47
2024/04/12 07:21:15;;;;;;;5.65;1.30;;;;;;;;;;5343868;26;20015;-46
2024/04/12 07:23:41;;;;;;;2.58;1.00;;;;;;;;;;5375072;26;20004;-53
2024/04/12 07:26:14;;;;;;;4.13;1.40;;;;;;;;;;5373431;26;20586;-48
2024/04/12 07:28:41;;;;;;;5.15;1.23;;;;;;;;;;5375527;26;20368;-48
2024/04/12 07:31:07;;;;;;;7.20;2.38;;;;;;;;;;5374273;26;20001;-53
2024/04/12 07:33:33;;;;;;;6.07;1.33;;;;;;;;;;5372548;26;20479;-51
2024/04/12 07:35:59;;;;;;;4.32;1.40;;;;;;;;;;5374852;26;20016;-49
2024/04/12 07:38:25;;;;;;;10.90;1.90;;;;;;;;;;5374022;26;20123;-49
2024/04/12 07:40:54;;;;;;;5.82;1.33;;;;;;;;;;5374558;26;20379;-51
2024/04/12 07:43:23;;;;;;;9.75;1.67;;;;;;;;;;5371548;26;20368;-49
2024/04/12 07:45:50;;;;;;;5.35;1.60;;;;;;;;;;5372566;26;20004;-46
2024/04/12 07:50:47;;;;;;;6.07;1.45;;;;;;;;;;5377309;26;20000;-46
2024/04/12 07:53:26;;;;;;;3.00;1.20;;;;;;;;;;5372483;26;20344;-51
2024/04/12 07:56:07;;;;;;;6.40;2.10;;;;;;;;;;5374015;26;20004;-45
2024/04/12 07:58:36;;;;;;;3.38;1.00;;;;;;;;;;5374058;26;20051;-51
2024/04/12 08:01:18;;;;;;;2.38;1.02;;;;;;;;;;5372012;26;20020;-47
2024/04/12 08:04:05;;;;;;;9.68;3.20;;;;;;;;;;5385679;26;20007;-45
2024/04/12 08:06:37;;;;;;;7.63;1.33;;;;;;;;;;5409520;26;20004;-45
2024/04/12 08:09:21;;;;;;;4.28;1.10;;;;;;;;;;5378351;26;20035;-49
2024/04/12 08:11:51;;;;;;;3.58;1.20;;;;;;;;;;5373177;26;20082;-50
2024/04/12 08:14:22;;;;;;;2.20;0.95;;;;;;;;;;5372694;26;20089;-51
2024/04/12 08:16:52;;;;;;;6.40;2.35;;;;;;;;;;5343237;26;20004;-48
2024/04/12 08:19:38;;;;;;;3.28;1.17;;;;;;;;;;5343584;26;20015;-50
2024/04/12 08:22:06;;;;;;;3.97;1.10;;;;;;;;;;5373541;26;20008;-51
2024/04/12 08:24:33;;;;;;;10.48;1.65;;;;;;;;;;5374357;26;20545;-48
2024/04/12 08:27:02;;;;;;;6.22;1.10;;;;;;;;;;5374029;26;20020;-49
2024/04/12 08:29:27;;;;;;;3.80;1.20;;;;;;;;;;5384262;26;20000;-48
2024/04/12 08:31:59;;;;;;;5.13;1.20;;;;;;;;;;5375323;26;20022;-54
2024/04/12 08:34:31;;;;;;;6.45;1.17;;;;;;;;;;5373539;26;20004;-50
2024/04/12 08:36:57;;;;;;;2.63;0.88;;;;;;;;;;5373128;26;20451;-56
2024/04/12 08:39:29;;;;;;;4.65;1.10;;;;;;;;;;5372109;26;20001;-48
2024/04/12 08:41:59;;;;;;;5.55;1.33;;;;;;;;;;5372640;26;20012;-49
2024/04/12 08:44:26;;;;;;;3.72;1.13;;;;;;;;;;5371958;26;20399;-52
2024/04/12 08:46:52;;;;;;;8.32;2.22;;;;;;;;;;5371520;26;20503;-45
2024/04/12 08:49:18;;;;;;;4.55;1.40;;;;;;;;;;5361382;26;20867;-48
2024/04/12 08:51:46;;;;;;;3.55;1.20;;;;;;;;;;5363276;26;20019;-51
2024/04/12 08:54:14;;;;;;;5.55;0.95;;;;;;;;;;5372093;26;20483;-51
2024/04/12 08:56:45;;;;;;;2.28;0.93;;;;;;;;;;5373152;26;20019;-50
2024/04/12 08:59:17;;;;;;;9.35;1.33;;;;;;;;;;5373292;26;20025;-48
2024/04/12 09:01:44;;;;;;;3.42;1.00;;;;;;;;;;5373344;26;20048;-52
2024/04/12 09:04:14;;;;;;;3.60;1.00;;;;;;;;;;5376277;26;20014;-48
2024/04/12 09:06:41;;;;;;;2.70;0.88;;;;;;;;;;5406651;26;20019;-46
2024/04/12 09:09:13;;;;;;;1.20;0.70;;;;;;;;;;5377441;26;20006;-51
2024/04/12 09:11:44;;;;;;;9.73;1.55;;;;;;;;;;5400557;26;20008;-53
2024/04/12 09:14:19;;;;;;;2.75;1.08;;;;;;;;;;5351440;26;20078;-52
2024/04/12 09:16:49;;;;;;;4.05;1.38;;;;;;;;;;5372981;26;20004;-55
2024/04/12 09:19:15;;;;;;;3.08;0.82;;;;;;;;;;5370737;26;20008;-54
2024/04/12 09:24:39;;;;;;;0.65;0.60;;;;;;;;;;5364711;26;20004;-53
2024/04/12 09:27:09;;;;;;;3.13;1.35;;;;;;;;;;5373090;26;20012;-49
2024/04/12 09:29:45;;;;;;;1.85;0.75;;;;;;;;;;5371286;26;20008;-56
2024/04/12 09:34:55;;;;;;;6.07;1.60;;;;;;;;;;5370385;26;20009;-57
2024/04/12 09:42:44;;;;;;;2.80;1.00;;;;;;;;;;5372876;26;20015;-56
2024/04/12 09:45:16;;;;;;;3.22;0.95;;;;;;;;;;5400236;26;20043;-60
2024/04/12 10:38:02;;;;;;;4.97;1.00;;;;;;;;;;5406345;26;19999;-58
2024/04/12 10:40:30;;;;;;;3.78;1.02;;;;;;;;;;5373520;26;20460;-58
2024/04/12 10:42:59;;;;;;;2.58;1.10;;;;;;;;;;5382015;26;20018;-60
2024/04/12 10:45:29;;;;;;;3.75;1.27;;;;;;;;;;5398648;26;20000;-58
2024/04/12 10:47:55;;;;;;;3.03;1.20;;;;;;;;;;5408720;26;20043;-58
2024/04/12 10:50:22;;;;;;;3.53;1.10;;;;;;;;;;5373508;26;20016;-57
2024/04/12 10:52:49;;;;;;;1.92;1.00;;;;;;;;;;5375714;26;20008;-56
2024/04/12 10:55:19;;;;;;;4.55;1.02;;;;;;;;;;5373449;26;20434;-58
2024/04/12 10:57:48;;;;;;;4.47;1.40;;;;;;;;;;5375166;26;20044;-58
2024/04/12 11:00:15;;;;;;;8.75;1.08;;;;;;;;;;5373505;26;20470;-60
2024/04/12 11:02:45;;;;;;;2.45;1.33;;;;;;;;;;5373450;26;20008;-60
2024/04/12 11:07:46;;;;;;;4.97;0.98;;;;;;;;;;5410216;26;20360;-60
2024/04/12 11:10:24;;;;;;;2.72;1.00;;;;;;;;;;5407617;26;20004;-59
2024/04/12 11:13:06;;;;;;;3.35;1.20;;;;;;;;;;5401382;26;20019;-61
2024/04/12 11:31:55;;;;;;;8.57;2.65;;;;;;;;;;5387574;26;20008;-58
2024/04/12 11:34:23;;;;;;;4.05;1.10;;;;;;;;;;5371724;26;20515;-60
2024/04/12 11:36:53;;;;;;;7.72;1.20;;;;;;;;;;5373552;26;20348;-60
2024/04/12 11:39:26;;;;;;;5.05;1.30;;;;;;;;;;5372301;26;20016;-58
2024/04/12 11:41:52;;;;;;;4.28;1.40;;;;;;;;;;5372423;26;20181;-58
2024/04/12 11:44:18;;;;;;;4.13;1.08;;;;;;;;;;5372888;26;20012;-57
2024/04/12 11:46:48;;;;;;;5.65;1.20;;;;;;;;;;5374399;26;20018;-59
2024/04/12 11:49:16;;;;;;;6.93;1.75;;;;;;;;;;5380323;26;20864;-60
2024/04/12 11:51:42;;;;;;;5.15;0.98;;;;;;;;;;5343509;26;20019;-58
2024/04/12 11:54:13;;;;;;;5.65;1.30;;;;;;;;;;5376695;26;20445;-59
2024/04/12 11:56:39;;;;;;;3.15;0.95;;;;;;;;;;5375152;26;20467;-57
2024/04/12 11:59:09;;;;;;;1.45;0.80;;;;;;;;;;5374547;26;20004;-56
2024/04/12 12:01:39;;;;;;;2.10;0.80;;;;;;;;;;5372857;26;20018;-55
2024/04/12 12:04:06;;;;;;;2.83;0.80;;;;;;;;;;5341611;26;20007;-59
2024/04/12 12:06:32;;;;;;;3.08;0.98;;;;;;;;;;5408204;26;20057;-59
2024/04/12 12:08:58;;;;;;;5.15;1.00;;;;;;;;;;5408223;26;20000;-55
2024/04/12 12:11:24;;;;;;;3.50;1.08;;;;;;;;;;5409969;26;20015;-58
2024/04/12 12:13:53;;;;;;;5.13;1.00;;;;;;;;;;5390209;26;20012;-59
2024/04/12 12:16:19;;;;;;;2.78;0.80;;;;;;;;;;5374565;26;20870;-58
2024/04/12 12:18:45;;;;;;;5.22;1.00;;;;;;;;;;5375273;26;20008;-58
2024/04/12 12:21:11;;;;;;;4.00;1.00;;;;;;;;;;5374571;26;20371;-58
2024/04/12 12:23:37;;;;;;;2.65;0.95;;;;;;;;;;5374743;26;19996;-60
2024/04/12 12:26:03;;;;;;;5.30;1.10;;;;;;;;;;5374629;26;20004;-56
2024/04/12 12:28:28;;;;;;;3.10;1.00;;;;;;;;;;5373496;26;20019;-58
2024/04/12 12:30:57;;;;;;;6.35;1.25;;;;;;;;;;5373619;26;20004;-58
2024/04/12 12:33:24;;;;;;;3.42;1.40;;;;;;;;;;5373658;26;20022;-58
2024/04/12 12:35:50;;;;;;;32.53;14.32;;;;;;;;;;5370685;26;20015;-59
2024/04/12 12:38:17;;;;;;;7.10;0.85;;;;;;;;;;5342726;26;20490;-59
2024/04/12 12:40:42;;;;;;;1.63;0.90;;;;;;;;;;5373590;26;20008;-58
2024/04/12 12:43:10;;;;;;;1.15;0.70;;;;;;;;;;5371758;26;20447;-60
2024/04/12 12:45:36;;;;;;;5.05;1.00;;;;;;;;;;5343046;26;20078;-60
2024/04/12 12:48:03;;;;;;;5.45;1.10;;;;;;;;;;5313778;26;20056;-58
2024/04/12 12:50:29;;;;;;;1.83;1.00;;;;;;;;;;5403535;26;20007;-60
2024/04/12 12:52:55;;;;;;;2.38;0.90;;;;;;;;;;5408894;26;20052;-60
2024/04/12 12:55:24;;;;;;;4.30;0.85;;;;;;;;;;5385589;26;20363;-59
2024/04/12 12:58:08;;;;;;;1.90;0.70;;;;;;;;;;5372246;26;20012;-58
2024/04/12 13:00:42;;;;;;;8.07;0.70;;;;;;;;;;5373671;26;20004;-59
2024/04/12 13:03:12;;;;;;;4.88;0.90;;;;;;;;;;5373672;26;20047;-56
2024/04/12 13:05:40;;;;;;;2.92;0.75;;;;;;;;;;5373814;26;20019;-58
2024/04/12 13:08:06;;;;;;;4.22;1.13;;;;;;;;;;5342582;26;20016;-62
2024/04/12 13:10:33;;;;;;;1.10;0.52;;;;;;;;;;5373544;26;20004;-58
2024/04/12 13:13:06;;;;;;;0.95;0.60;;;;;;;;;;5342076;26;20004;-57
2024/04/12 13:15:32;;;;;;;6.43;0.80;;;;;;;;;;5374128;26;20028;-58
2024/04/12 13:17:58;;;;;;;3.10;0.70;;;;;;;;;;5371960;26;20158;-59
2024/04/12 13:20:23;;;;;;;2.47;0.90;;;;;;;;;;5371019;26;20005;-58
2024/04/12 13:22:49;;;;;;;1.50;0.75;;;;;;;;;;5373407;26;20004;-55
2024/04/12 13:25:15;;;;;;;3.58;0.90;;;;;;;;;;5372628;26;20070;-59
2024/04/12 13:27:46;;;;;;;2.45;0.85;;;;;;;;;;5371619;26;20000;-58
2024/04/12 13:30:14;;;;;;;3.05;0.90;;;;;;;;;;5371364;26;20008;-60
2024/04/12 13:32:43;;;;;;;5.78;0.90;;;;;;;;;;5373584;26;20026;-58
2024/04/12 13:35:14;;;;;;;4.78;0.82;;;;;;;;;;5372044;26;20016;-57
2024/04/12 13:37:42;;;;;;;1.60;1.02;;;;;;;;;;5374240;26;20336;-58
2024/04/12 13:40:17;;;;;;;5.05;0.90;;;;;;;;;;5371601;26;20024;-58
2024/04/12 13:42:48;;;;;;;4.22;1.23;;;;;;;;;;5376131;26;20000;-60
2024/04/12 13:50:55;;;;;;;3.22;0.70;;;;;;;;;;5410230;26;20416;-60
2024/04/12 13:53:31;;;;;;;2.25;1.00;;;;;;;;;;5410302;26;19999;-58
2024/04/12 13:56:46;;;;;;;6.20;0.82;;;;;;;;;;5412250;26;20003;-59
2024/04/12 13:58:57;;;;;;;3.33;0.80;;;;;;;;;;5373853;26;20506;-58
2024/04/12 14:01:24;;;;;;;3.05;0.77;;;;;;;;;;5374750;26;20000;-57
2024/04/12 14:03:54;;;;;;;2.25;0.80;;;;;;;;;;5384890;26;20019;-56
2024/04/12 14:06:25;;;;;;;5.40;1.05;;;;;;;;;;5411412;26;20395;-56
2024/04/12 14:08:55;;;;;;;0.68;0.50;;;;;;;;;;5344857;26;20012;-58
2024/04/12 14:11:24;;;;;;;3.03;1.00;;;;;;;;;;5374046;26;20016;-55
2024/04/12 14:13:50;;;;;;;2.78;1.10;;;;;;;;;;5374343;26;20032;-56
2024/04/12 14:16:16;;;;;;;2.05;0.70;;;;;;;;;;5376094;26;20081;-58
2024/04/12 14:18:43;;;;;;;0.40;0.30;;;;;;;;;;5373874;26;20015;-60
2024/04/12 14:21:10;;;;;;;0.98;0.60;;;;;;;;;;5374315;26;20004;-56
2024/04/12 14:23:36;;;;;;;1.90;0.90;;;;;;;;;;5374415;26;20004;-58
2024/04/12 14:26:04;;;;;;;1.70;0.70;;;;;;;;;;5376119;26;20113;-58
2024/04/12 14:28:30;;;;;;;2.63;0.98;;;;;;;;;;5376197;26;20027;-58
2024/04/12 14:30:55;;;;;;;1.23;0.68;;;;;;;;;;5376010;26;20570;-57
2024/04/12 14:33:22;;;;;;;1.40;0.80;;;;;;;;;;5374158;26;20053;-57
2024/04/12 14:35:48;;;;;;;3.65;0.95;;;;;;;;;;5374374;26;20016;-59
2024/04/12 14:38:15;;;;;;;1.60;0.73;;;;;;;;;;5376611;26;20054;-59
2024/04/12 14:40:50;;;;;;;0.68;0.50;;;;;;;;;;5374039;26;20564;-58
2024/04/12 14:43:17;;;;;;;2.28;0.73;;;;;;;;;;5373899;26;20008;-56
2024/04/12 14:45:46;;;;;;;2.22;0.68;;;;;;;;;;5375996;26;20024;-59
2024/04/12 14:48:12;;;;;;;2.63;0.50;;;;;;;;;;5376920;26;20328;-56
2024/04/12 14:50:42;;;;;;;3.67;0.80;;;;;;;;;;5405103;26;20018;-60
2024/04/12 14:53:08;;;;;;;3.88;0.80;;;;;;;;;;5409923;26;20003;-61
2024/04/12 14:55:34;;;;;;;2.30;0.93;;;;;;;;;;5410918;26;20588;-58
2024/04/12 14:58:00;;;;;;;1.80;0.77;;;;;;;;;;5411138;26;20445;-58
2024/04/12 15:00:26;;;;;;;1.23;0.80;;;;;;;;;;5379828;26;20000;-57
2024/04/12 15:49:34;;;;;;;4.72;2.08;;;;;;;;;;5375043;26;20012;-51
2024/04/12 15:52:21;;;;;;;2.35;0.80;;;;;;;;;;5343894;26;20015;-54
2024/04/12 15:54:55;;;;;;;1.83;0.93;;;;;;;;;;5372783;26;20019;-55
2024/04/12 16:11:04;;;;;;;2.03;1.30;;;;;;;;;;5372578;26;20345;-53
2024/04/12 16:13:30;;;;;;;2.38;1.10;;;;;;;;;;5375264;26;20004;-54
2024/04/12 16:15:56;;;;;;;2.28;1.35;;;;;;;;;;5373161;26;20020;-52
2024/04/12 16:18:22;;;;;;;1.77;0.93;;;;;;;;;;5374494;26;20207;-54
2024/04/12 16:20:48;;;;;;;2.17;0.80;;;;;;;;;;5372815;26;20491;-57
2024/04/12 16:23:17;;;;;;;1.48;1.05;;;;;;;;;;5375108;26;20495;-56
2024/04/12 16:25:43;;;;;;;;;;;;;;;;;;5374115;26;20000;-56
2024/04/12 16:28:09;;;;;;;4.57;1.20;;;;;;;;;;5372982;26;20003;-54
2024/04/12 16:30:35;;;;;;;3.33;0.90;;;;;;;;;;5315450;26;20016;-55
2024/04/12 16:33:02;;;;;;;3.50;1.13;;;;;;;;;;5315309;26;20004;-52
2024/04/12 16:35:29;;;;;;;3.65;1.00;;;;;;;;;;5374320;26;20028;-55
2024/04/12 16:37:55;;;;;;;1.63;0.98;;;;;;;;;;5372666;26;20012;-51
2024/04/12 16:40:21;;;;;;;1.77;1.15;;;;;;;;;;5374480;26;20012;-50
2024/04/12 16:42:47;;;;;;;1.80;1.00;;;;;;;;;;5374192;26;20004;-56
2024/04/12 16:45:13;;;;;;;4.80;1.40;;;;;;;;;;5374683;26;20004;-54
2024/04/12 16:47:39;;;;;;;1.63;0.90;;;;;;;;;;5374045;26;20008;-51
2024/04/12 16:50:06;;;;;;;3.53;1.08;;;;;;;;;;5374670;26;20044;-56
2024/04/12 16:52:32;;;;;;;3.78;1.35;;;;;;;;;;5314900;26;20008;-56
2024/04/12 16:54:58;;;;;;;1.45;0.93;;;;;;;;;;5374462;26;20654;-55
2024/04/12 16:57:24;;;;;;;1.90;1.10;;;;;;;;;;5372477;26;20015;-56
2024/04/12 16:59:49;;;;;;;2.92;0.82;;;;;;;;;;5374195;26;20015;-56
2024/04/12 17:02:15;;;;;;;2.35;1.10;;;;;;;;;;5372148;26;20008;-57
2024/04/12 17:04:41;;;;;;;2.55;1.33;;;;;;;;;;5387861;26;20078;-52
2024/04/12 17:07:08;;;;;;;4.00;1.10;;;;;;;;;;5372420;26;20004;-56
2024/04/12 17:09:34;;;;;;;2.90;1.10;;;;;;;;;;5314239;26;20000;-55
2024/04/12 17:12:00;;;;;;;3.33;1.27;;;;;;;;;;5371795;26;20008;-56
2024/04/12 17:14:26;;;;;;;1.35;0.95;;;;;;;;;;5371626;26;20077;-56
2024/04/12 17:16:51;;;;;;;3.92;1.20;;;;;;;;;;5371740;26;20035;-53
2024/04/12 17:19:18;;;;;;;1.67;0.90;;;;;;;;;;5342354;26;20082;-56
2024/04/12 17:21:43;;;;;;;1.75;1.00;;;;;;;;;;5342674;26;20005;-54
2024/04/12 17:24:12;;;;;;;6.70;1.73;;;;;;;;;;5372892;26;20077;-55
2024/04/12 17:26:38;;;;;;;2.60;1.30;;;;;;;;;;5372901;26;20016;-55
2024/04/12 17:29:04;;;;;;;2.22;1.30;;;;;;;;;;5373266;26;20078;-57